createdAt,value
2018-07-27T00:00:32.570Z,6.65
2018-07-27T00:03:00.967Z,6.00
2018-07-27T00:05:29.319Z,6.45
2018-07-27T00:07:57.882Z,5.85
2018-07-27T00:10:26.242Z,5.85
2018-07-27T00:12:54.656Z,6.20
2018-07-27T00:15:23.014Z,5.33
2018-07-27T00:17:51.382Z,5.83
2018-07-27T00:20:19.754Z,6.12
2018-07-27T00:22:48.097Z,5.53
2018-07-27T00:25:16.482Z,5.42
2018-07-27T00:27:44.849Z,5.53
2018-07-27T00:30:13.205Z,5.15
2018-07-27T00:32:41.605Z,5.45
2018-07-27T00:35:09.686Z,4.78
2018-07-27T00:37:38.051Z,4.65
2018-07-27T00:40:06.422Z,4.62
2018-07-27T00:42:34.769Z,4.70
2018-07-27T00:45:03.157Z,4.83
2018-07-27T00:47:31.493Z,5.05
2018-07-27T00:49:59.884Z,5.10
2018-07-27T00:52:28.237Z,5.00
2018-07-27T00:54:56.586Z,4.65
2018-07-27T00:57:24.937Z,4.37
2018-07-27T00:59:53.295Z,4.97
2018-07-27T01:02:21.690Z,4.85
2018-07-27T01:04:50.154Z,5.33
2018-07-27T01:07:18.525Z,5.70
2018-07-27T01:09:46.987Z,7.45
2018-07-27T01:12:15.349Z,6.53
2018-07-27T01:14:43.761Z,6.37
2018-07-27T01:17:12.188Z,5.72
2018-07-27T01:19:40.574Z,6.10
2018-07-27T01:22:08.945Z,5.78
2018-07-27T01:24:42.515Z,5.37
2018-07-27T01:27:10.966Z,5.65
2018-07-27T01:29:39.383Z,5.40
2018-07-27T01:32:07.766Z,5.50
2018-07-27T01:34:36.169Z,5.60
2018-07-27T01:37:04.751Z,5.40
2018-07-27T01:39:33.134Z,5.97
2018-07-27T01:42:01.570Z,5.47
2018-07-27T01:44:30.030Z,5.30
2018-07-27T01:46:58.406Z,5.53
2018-07-27T01:49:26.826Z,5.60
2018-07-27T01:51:55.208Z,5.45
2018-07-27T01:54:23.628Z,5.10
2018-07-27T01:56:52.026Z,5.62
2018-07-27T01:59:20.432Z,5.28
2018-07-27T02:01:49.013Z,5.70
2018-07-27T02:04:17.413Z,5.40
2018-07-27T02:06:45.799Z,5.60
2018-07-27T02:09:14.267Z,5.15
2018-07-27T02:11:42.684Z,4.87
2018-07-27T02:14:11.055Z,5.33
2018-07-27T02:16:39.462Z,5.00
2018-07-27T02:19:07.883Z,4.92
2018-07-27T02:21:35.982Z,4.70
2018-07-27T02:24:04.369Z,4.60
2018-07-27T02:26:32.752Z,5.00
2018-07-27T02:29:01.143Z,5.00
2018-07-27T02:31:29.559Z,4.97
2018-07-27T02:33:57.949Z,4.90
2018-07-27T02:36:26.354Z,5.00
2018-07-27T02:38:54.734Z,5.10
2018-07-27T02:41:23.147Z,4.70
2018-07-27T02:43:51.654Z,5.30
2018-07-27T02:46:20.042Z,5.12
2018-07-27T02:48:48.394Z,5.65
2018-07-27T02:51:16.795Z,5.60
2018-07-27T02:53:45.171Z,5.60
2018-07-27T02:56:13.561Z,5.70
2018-07-27T02:58:41.902Z,5.80
2018-07-27T03:01:10.306Z,5.53
2018-07-27T03:03:38.658Z,5.53
2018-07-27T03:06:07.070Z,5.55
2018-07-27T03:08:35.430Z,5.60
2018-07-27T03:11:03.860Z,5.90
2018-07-27T03:13:32.213Z,6.05
2018-07-27T03:16:00.603Z,5.83
2018-07-27T03:18:28.980Z,6.17
2018-07-27T03:20:57.394Z,6.10
2018-07-27T03:23:25.778Z,5.80
2018-07-27T03:25:54.158Z,5.47
2018-07-27T03:28:22.533Z,5.90
2018-07-27T03:30:50.922Z,5.33
2018-07-27T03:33:19.271Z,5.22
2018-07-27T03:35:47.678Z,5.85
2018-07-27T03:38:16.114Z,6.05
2018-07-27T03:40:44.515Z,5.90
2018-07-27T03:43:12.930Z,5.65
2018-07-27T03:45:41.302Z,6.03
2018-07-27T03:48:10.333Z,5.75
2018-07-27T03:50:40.516Z,5.83
2018-07-27T03:53:09.516Z,5.92
2018-07-27T03:55:37.886Z,5.20
2018-07-27T03:58:06.298Z,5.67
2018-07-27T04:00:34.677Z,5.90
2018-07-27T04:03:03.119Z,5.20
2018-07-27T04:05:31.484Z,5.53
2018-07-27T04:07:59.910Z,5.58
2018-07-27T04:10:28.302Z,5.22
2018-07-27T04:12:56.687Z,5.35
2018-07-27T04:15:25.070Z,5.33
2018-07-27T04:18:00.780Z,5.45
2018-07-27T04:20:29.775Z,5.47
2018-07-27T04:22:58.397Z,5.47
2018-07-27T04:25:26.821Z,5.03
2018-07-27T04:27:55.217Z,5.12
2018-07-27T04:30:23.610Z,5.65
2018-07-27T04:32:52.050Z,5.12
2018-07-27T04:35:20.762Z,6.20
2018-07-27T04:37:48.957Z,6.33
2018-07-27T04:40:17.438Z,5.65
2018-07-27T04:42:46.813Z,5.97
2018-07-27T04:45:15.265Z,6.08
2018-07-27T04:47:43.668Z,6.37
2018-07-27T04:50:12.019Z,5.90
2018-07-27T04:52:40.466Z,6.47
2018-07-27T04:55:08.896Z,6.22
2018-07-27T04:57:37.292Z,5.67
2018-07-27T05:00:06.586Z,6.62
2018-07-27T05:02:34.981Z,5.65
2018-07-27T05:05:03.496Z,6.28
2018-07-27T05:07:31.887Z,5.50
2018-07-27T05:10:00.407Z,5.87
2018-07-27T05:12:28.786Z,5.62
2018-07-27T05:14:57.143Z,5.58
2018-07-27T05:17:25.566Z,6.03
2018-07-27T05:19:53.925Z,6.22
2018-07-27T05:22:22.410Z,6.37
2018-07-27T05:24:50.923Z,6.12
2018-07-27T05:27:19.327Z,6.55
2018-07-27T05:29:47.719Z,6.40
2018-07-27T05:32:16.139Z,5.17
2018-07-27T05:34:44.541Z,5.60
2018-07-27T05:37:12.950Z,5.17
2018-07-27T05:39:41.332Z,5.65
2018-07-27T05:42:09.772Z,5.20
2018-07-27T05:44:38.162Z,6.15
2018-07-27T05:47:06.860Z,5.45
2018-07-27T05:49:35.204Z,5.55
2018-07-27T05:52:03.672Z,5.50
2018-07-27T05:54:32.121Z,5.60
2018-07-27T05:57:00.482Z,5.28
2018-07-27T05:59:28.972Z,5.83
2018-07-27T06:01:57.365Z,5.90
2018-07-27T06:04:25.778Z,5.55
2018-07-27T06:06:54.184Z,5.47
2018-07-27T06:09:22.685Z,5.90
2018-07-27T06:11:51.153Z,6.20
2018-07-27T06:14:19.634Z,6.12
2018-07-27T06:16:48.139Z,5.83
2018-07-27T06:19:16.568Z,6.45
2018-07-27T06:21:45.014Z,6.55
2018-07-27T06:24:13.445Z,7.30
2018-07-27T06:26:41.878Z,7.87
2018-07-27T06:29:10.418Z,6.40
2018-07-27T06:31:38.763Z,6.60
2018-07-27T06:34:06.869Z,6.28
2018-07-27T06:36:35.426Z,5.90
2018-07-27T06:39:04.067Z,6.28
2018-07-27T06:41:32.458Z,6.03
2018-07-27T06:44:00.932Z,5.78
2018-07-27T06:46:29.316Z,6.08
2018-07-27T06:48:57.733Z,6.00
2018-07-27T06:51:26.184Z,5.95
2018-07-27T06:53:54.630Z,6.08
2018-07-27T06:56:23.392Z,6.95
2018-07-27T06:58:51.879Z,6.60
2018-07-27T07:01:19.957Z,7.03
2018-07-27T07:03:49.097Z,6.45
2018-07-27T07:06:17.490Z,5.87
2018-07-27T07:08:46.106Z,6.58
2018-07-27T07:11:14.510Z,6.12
2018-07-27T07:13:42.904Z,6.10
2018-07-27T07:16:11.403Z,5.80
2018-07-27T07:18:50.999Z,5.37
2018-07-27T07:21:19.514Z,5.80
2018-07-27T07:23:48.009Z,5.47
2018-07-27T07:26:16.455Z,5.95
2018-07-27T07:28:44.978Z,5.75
2018-07-27T07:31:13.433Z,5.97
2018-07-27T07:33:41.825Z,5.80
2018-07-27T07:36:10.310Z,6.53
2018-07-27T07:38:38.675Z,6.05
2018-07-27T07:41:07.128Z,5.95
2018-07-27T07:43:35.855Z,5.58
2018-07-27T07:46:04.259Z,5.83
2018-07-27T07:48:32.751Z,5.55
2018-07-27T07:51:01.567Z,6.03
2018-07-27T07:53:29.942Z,5.72
2018-07-27T07:55:58.577Z,5.08
2018-07-27T07:58:27.591Z,5.35
2018-07-27T08:00:56.931Z,7.35
2018-07-27T08:03:25.379Z,5.45
2018-07-27T08:05:53.881Z,5.37
2018-07-27T08:08:22.467Z,5.58
2018-07-27T08:10:50.962Z,5.28
2018-07-27T08:13:19.379Z,5.67
2018-07-27T08:15:48.107Z,5.65
2018-07-27T08:18:16.523Z,5.80
2018-07-27T08:20:45.409Z,5.45
2018-07-27T08:23:13.829Z,6.03
2018-07-27T08:26:57.230Z,5.72
2018-07-27T08:29:28.078Z,5.97
2018-07-27T08:31:57.188Z,6.17
2018-07-27T08:34:25.612Z,5.30
2018-07-27T08:36:54.179Z,5.45
2018-07-27T08:39:23.984Z,5.45
2018-07-27T08:41:52.587Z,6.05
2018-07-27T08:44:22.331Z,5.83
2018-07-27T08:46:50.824Z,6.05
2018-07-27T08:49:19.418Z,6.40
2018-07-27T08:51:47.901Z,5.50
2018-07-27T08:54:16.362Z,5.47
2018-07-27T08:56:44.786Z,5.97
2018-07-27T08:59:13.354Z,6.08
2018-07-27T09:01:41.852Z,5.00
2018-07-27T09:04:10.311Z,5.62
2018-07-27T09:06:38.920Z,5.92
2018-07-27T09:09:08.792Z,5.25
2018-07-27T09:11:37.218Z,6.53
2018-07-27T09:14:05.940Z,6.12
2018-07-27T09:16:34.343Z,5.45
2018-07-27T09:19:02.844Z,6.30
2018-07-27T09:21:31.371Z,6.90
2018-07-27T09:23:59.797Z,7.42
2018-07-27T09:26:28.294Z,5.58
2018-07-27T09:28:56.693Z,5.65
2018-07-27T09:31:25.157Z,6.20
2018-07-27T09:33:54.130Z,6.00
2018-07-27T09:36:22.610Z,5.85
2018-07-27T09:38:51.022Z,5.83
2018-07-27T09:41:19.481Z,5.40
2018-07-27T09:43:48.042Z,5.87
2018-07-27T09:46:16.626Z,5.72
2018-07-27T09:48:50.963Z,5.45
2018-07-27T09:51:20.127Z,6.00
2018-07-27T09:53:48.600Z,5.90
2018-07-27T09:56:17.411Z,5.47
2018-07-27T09:58:45.857Z,5.83
2018-07-27T10:01:19.991Z,5.80
2018-07-27T10:03:48.394Z,5.72
2018-07-27T10:06:17.096Z,4.92
2018-07-27T10:08:45.489Z,5.62
2018-07-27T10:11:13.970Z,5.60
2018-07-27T10:13:42.386Z,5.53
2018-07-27T10:16:10.818Z,5.45
2018-07-27T10:18:39.218Z,5.12
2018-07-27T10:21:08.132Z,5.30
2018-07-27T10:23:36.587Z,5.20
2018-07-27T10:26:04.987Z,5.37
2018-07-27T10:28:33.427Z,5.53
2018-07-27T10:31:01.855Z,5.22
2018-07-27T10:33:30.318Z,4.80
2018-07-27T10:35:58.441Z,5.28
2018-07-27T10:38:27.162Z,4.65
2018-07-27T10:40:55.621Z,4.45
2018-07-27T10:43:24.354Z,4.60
2018-07-27T10:45:52.763Z,4.62
2018-07-27T10:48:21.259Z,4.50
2018-07-27T10:50:49.780Z,4.53
2018-07-27T10:53:18.221Z,4.72
2018-07-27T10:55:46.598Z,4.10
2018-07-27T10:58:14.975Z,4.33
2018-07-27T11:00:43.346Z,4.30
2018-07-27T11:03:11.905Z,5.10
2018-07-27T11:05:40.602Z,4.03
2018-07-27T11:08:11.842Z,3.77
2018-07-27T11:10:40.206Z,3.90
2018-07-27T11:13:08.642Z,3.17
2018-07-27T11:15:37.032Z,3.45
2018-07-27T11:18:05.524Z,3.50
2018-07-27T11:20:33.891Z,3.22
2018-07-27T11:23:02.291Z,3.65
2018-07-27T11:25:30.740Z,3.42
2018-07-27T11:27:59.245Z,3.30
2018-07-27T11:30:27.671Z,3.00
2018-07-27T11:32:56.077Z,3.00
2018-07-27T11:35:24.501Z,3.00
2018-07-27T11:37:52.934Z,2.85
2018-07-27T11:40:21.605Z,3.35
2018-07-27T11:42:50.157Z,3.40
2018-07-27T11:45:18.807Z,4.10
2018-07-27T11:47:47.545Z,3.47
2018-07-27T11:50:16.013Z,4.12
2018-07-27T11:52:44.459Z,3.83
2018-07-27T11:55:12.890Z,3.27
2018-07-27T11:57:41.290Z,3.30
2018-07-27T12:00:09.765Z,3.10
2018-07-27T12:02:38.258Z,3.52
2018-07-27T12:05:06.696Z,3.20
2018-07-27T12:07:35.095Z,2.67
2018-07-27T12:10:03.575Z,2.92
2018-07-27T12:12:32.084Z,3.10
2018-07-27T12:15:00.573Z,3.30
2018-07-27T12:17:28.923Z,3.40
2018-07-27T12:19:57.347Z,3.20
2018-07-27T12:22:25.739Z,3.98
2018-07-27T12:24:54.227Z,3.62
2018-07-27T12:27:22.640Z,4.30
2018-07-27T12:29:51.094Z,11.85
2018-07-27T12:32:19.617Z,6.45
2018-07-27T12:34:48.007Z,4.37
2018-07-27T12:37:16.415Z,3.70
2018-07-27T12:39:45.022Z,3.40
2018-07-27T12:42:13.414Z,3.40
2018-07-27T12:44:41.828Z,3.33
2018-07-27T12:47:10.291Z,2.92
2018-07-27T12:49:38.730Z,2.92
2018-07-27T12:52:07.213Z,3.00
2018-07-27T12:54:35.683Z,2.90
2018-07-27T12:57:04.116Z,2.90
2018-07-27T13:02:07.329Z,2.80
2018-07-27T13:04:35.810Z,2.65
2018-07-27T13:07:03.904Z,2.98
2018-07-27T13:09:32.022Z,2.60
2018-07-27T13:12:06.983Z,2.72
2018-07-27T13:17:03.806Z,2.50
2018-07-27T13:19:32.213Z,2.02
2018-07-27T13:22:00.632Z,2.62
2018-07-27T13:26:57.477Z,2.35
2018-07-27T13:29:25.869Z,2.30
2018-07-27T13:31:55.436Z,2.52
2018-07-27T13:34:35.163Z,2.70
2018-07-27T13:37:03.995Z,2.75
2018-07-27T13:39:32.936Z,2.30
2018-07-27T13:42:02.540Z,2.60
2018-07-27T13:44:32.304Z,2.70
2018-07-27T13:47:01.130Z,2.50
2018-07-27T13:49:29.597Z,2.55
2018-07-27T13:51:58.737Z,2.58
2018-07-27T13:54:27.928Z,2.40
2018-07-27T13:56:56.315Z,2.80
2018-07-27T13:59:24.793Z,2.42
2018-07-27T14:01:53.435Z,2.12
2018-07-27T14:04:21.904Z,2.20
2018-07-27T14:06:52.721Z,1.95
2018-07-27T14:09:21.187Z,2.12
2018-07-27T14:11:49.614Z,1.80
2018-07-27T14:14:18.025Z,1.80
2018-07-27T14:16:46.468Z,1.80
2018-07-27T14:19:15.803Z,2.10
2018-07-27T14:21:44.452Z,2.20
2018-07-27T14:24:12.822Z,2.12
2018-07-27T14:26:41.281Z,1.85
2018-07-27T14:29:09.773Z,2.10
2018-07-27T14:31:38.172Z,2.00
2018-07-27T14:34:06.932Z,2.50
2018-07-27T14:36:35.443Z,2.62
2018-07-27T14:39:06.281Z,3.50
2018-07-27T14:41:34.682Z,2.50
2018-07-27T14:44:03.433Z,3.12
2018-07-27T14:46:31.952Z,2.50
2018-07-27T14:49:00.369Z,2.40
2018-07-27T14:51:28.975Z,2.08
2018-07-27T14:53:57.571Z,2.77
2018-07-27T14:56:25.978Z,4.30
2018-07-27T14:58:54.369Z,2.35
2018-07-27T15:01:22.811Z,2.00
2018-07-27T15:03:51.236Z,2.00
2018-07-27T15:06:19.774Z,2.12
2018-07-27T15:08:48.210Z,2.30
2018-07-27T15:14:48.612Z,2.33
2018-07-27T15:17:16.998Z,2.47
2018-07-27T15:19:45.467Z,2.10
2018-07-27T15:22:13.851Z,1.82
2018-07-27T15:24:48.765Z,2.30
2018-07-27T15:27:17.130Z,5.97
2018-07-27T15:29:45.596Z,3.50
2018-07-27T15:32:14.058Z,2.80
2018-07-27T15:37:17.178Z,2.40
2018-07-27T15:39:45.591Z,2.15
2018-07-27T15:42:14.078Z,2.50
2018-07-27T15:44:42.482Z,2.50
2018-07-27T15:47:10.915Z,2.52
2018-07-27T15:49:39.366Z,2.50
2018-07-27T15:52:07.771Z,3.00
2018-07-27T15:54:36.253Z,2.90
2018-07-27T15:57:05.056Z,2.60
2018-07-27T15:59:33.417Z,2.52
2018-07-27T16:02:01.860Z,7.40
2018-07-27T16:04:31.334Z,2.92
2018-07-27T16:06:59.733Z,2.52
2018-07-27T16:09:28.114Z,2.67
2018-07-27T16:11:56.641Z,2.50
2018-07-27T16:14:25.121Z,2.80
2018-07-27T16:16:54.194Z,3.00
2018-07-27T16:19:22.582Z,3.25
2018-07-27T16:21:51.026Z,3.45
2018-07-27T16:24:19.486Z,3.08
2018-07-27T16:26:47.980Z,3.20
2018-07-27T16:29:16.384Z,3.50
2018-07-27T16:31:44.762Z,3.37
2018-07-27T16:34:13.114Z,3.67
2018-07-27T16:36:41.534Z,3.25
2018-07-27T16:39:11.037Z,3.50
2018-07-27T16:41:39.402Z,6.60
2018-07-27T16:44:07.801Z,6.83
2018-07-27T16:46:36.230Z,7.75
2018-07-27T16:49:05.476Z,6.87
2018-07-27T16:51:34.833Z,3.47
2018-07-27T16:54:03.823Z,4.37
2018-07-27T16:56:32.317Z,3.02
2018-07-27T16:59:01.520Z,2.77
2018-07-27T17:01:29.986Z,2.92
2018-07-27T17:03:58.666Z,2.90
2018-07-27T17:06:27.137Z,2.90
2018-07-27T17:08:55.642Z,2.70
2018-07-27T17:11:24.123Z,2.87
2018-07-27T17:13:52.519Z,2.80
2018-07-27T17:16:20.943Z,3.37
2018-07-27T17:18:49.421Z,2.77
2018-07-27T17:21:17.824Z,2.77
2018-07-27T17:23:46.211Z,3.37
2018-07-27T17:26:15.321Z,6.53
2018-07-27T17:28:43.749Z,3.25
2018-07-27T17:31:12.295Z,10.13
2018-07-27T17:33:40.767Z,16.45
2018-07-27T17:36:09.177Z,8.28
2018-07-27T17:38:37.615Z,8.38
2018-07-27T17:41:06.377Z,6.12
2018-07-27T17:43:41.139Z,7.45
2018-07-27T17:46:09.537Z,3.75
2018-07-27T17:48:38.004Z,3.50
2018-07-27T17:51:06.440Z,3.00
2018-07-27T17:53:34.833Z,3.37
2018-07-27T17:56:03.230Z,3.52
2018-07-27T17:58:31.625Z,3.40
2018-07-27T18:01:00.064Z,3.40
2018-07-27T18:03:28.487Z,3.60
2018-07-27T18:05:56.951Z,3.72
2018-07-27T18:08:25.395Z,4.00
2018-07-27T18:10:53.839Z,3.90
2018-07-27T18:13:22.390Z,4.15
2018-07-27T18:15:50.771Z,4.22
2018-07-27T18:18:19.214Z,4.50
2018-07-27T18:20:47.613Z,4.28
2018-07-27T18:23:16.053Z,4.87
2018-07-27T18:25:44.433Z,4.40
2018-07-27T18:28:12.830Z,5.15
2018-07-27T18:30:41.207Z,4.80
2018-07-27T18:33:09.619Z,5.40
2018-07-27T18:35:38.006Z,4.65
2018-07-27T18:38:06.704Z,4.62
2018-07-27T18:40:35.105Z,4.60
2018-07-27T18:43:03.574Z,4.78
2018-07-27T18:45:31.980Z,4.95
2018-07-27T18:48:00.514Z,5.10
2018-07-27T18:50:28.921Z,5.12
2018-07-27T18:52:57.354Z,5.45
2018-07-27T18:55:25.999Z,5.53
2018-07-27T18:57:54.118Z,6.00
2018-07-27T19:00:22.554Z,6.03
2018-07-27T19:02:50.705Z,5.22
2018-07-27T19:05:19.116Z,5.42
2018-07-27T19:07:47.511Z,5.50
2018-07-27T19:10:15.924Z,5.70
2018-07-27T19:12:44.302Z,5.40
2018-07-27T19:15:12.722Z,5.60
2018-07-27T19:17:41.143Z,5.78
2018-07-27T19:20:09.611Z,6.03
2018-07-27T19:22:38.024Z,6.40
2018-07-27T19:25:06.550Z,6.25
2018-07-27T19:27:34.930Z,7.22
2018-07-27T19:30:03.359Z,6.25
2018-07-27T19:32:31.717Z,6.60
2018-07-27T19:35:00.176Z,6.40
2018-07-27T19:37:28.546Z,6.58
2018-07-27T19:39:57.010Z,6.80
2018-07-27T19:42:25.402Z,7.10
2018-07-27T19:44:53.823Z,6.92
2018-07-27T19:47:22.401Z,7.15
2018-07-27T19:49:51.187Z,6.17
2018-07-27T19:52:19.578Z,6.50
2018-07-27T19:54:47.996Z,6.60
2018-07-27T19:57:16.371Z,6.80
2018-07-27T19:59:44.807Z,7.62
2018-07-27T20:02:13.237Z,6.62
2018-07-27T20:04:41.622Z,7.47
2018-07-27T20:07:10.034Z,6.72
2018-07-27T20:09:38.431Z,8.35
2018-07-27T20:12:06.808Z,7.70
2018-07-27T20:14:35.275Z,7.30
2018-07-27T20:17:03.692Z,6.20
2018-07-27T20:19:32.207Z,5.67
2018-07-27T20:22:00.588Z,5.67
2018-07-27T20:24:29.023Z,5.35
2018-07-27T20:27:03.498Z,6.15
2018-07-27T20:29:31.893Z,5.37
2018-07-27T20:32:00.408Z,5.92
2018-07-27T20:34:28.803Z,5.83
2018-07-27T20:36:57.211Z,6.12
2018-07-27T20:39:25.650Z,5.55
2018-07-27T20:41:54.082Z,5.22
2018-07-27T20:44:22.574Z,5.08
2018-07-27T20:46:51.001Z,5.42
2018-07-27T20:49:19.397Z,6.37
2018-07-27T20:51:47.791Z,5.40
2018-07-27T20:54:16.253Z,5.90
2018-07-27T20:56:44.692Z,6.60
2018-07-27T20:59:13.076Z,6.97
2018-07-27T21:01:41.594Z,9.53
2018-07-27T21:04:11.024Z,11.93
2018-07-27T21:06:39.479Z,12.15
2018-07-27T21:09:09.094Z,15.63
2018-07-27T21:11:37.560Z,14.47
2018-07-27T21:14:06.210Z,13.48
2018-07-27T21:16:34.713Z,11.00
2018-07-27T21:19:03.102Z,12.50
2018-07-27T21:21:31.547Z,9.05
2018-07-27T21:23:59.902Z,7.70
2018-07-27T21:26:28.595Z,6.83
2018-07-27T21:28:57.134Z,8.25
2018-07-27T21:31:25.527Z,7.55
2018-07-27T21:33:54.408Z,8.25
2018-07-27T21:36:22.904Z,6.95
2018-07-27T21:38:51.297Z,6.97
2018-07-27T21:41:19.743Z,7.37
2018-07-27T21:43:48.114Z,7.58
2018-07-27T21:46:16.625Z,7.25
2018-07-27T21:48:45.027Z,6.83
2018-07-27T21:51:13.402Z,6.87
2018-07-27T21:53:41.789Z,7.37
2018-07-27T21:56:10.314Z,7.83
2018-07-27T21:58:38.683Z,7.00
2018-07-27T22:01:07.186Z,6.95
2018-07-27T22:03:35.593Z,6.50
2018-07-27T22:06:04.066Z,6.20
2018-07-27T22:08:32.470Z,7.40
2018-07-27T22:11:00.886Z,6.00
2018-07-27T22:13:29.420Z,6.50
2018-07-27T22:15:57.804Z,6.40
2018-07-27T22:18:26.258Z,6.25
2018-07-27T22:20:54.633Z,5.85
2018-07-27T22:23:23.094Z,6.42
2018-07-27T22:25:51.479Z,6.75
2018-07-27T22:28:19.970Z,6.70
2018-07-27T22:30:48.342Z,6.25
2018-07-27T22:33:16.779Z,5.42
2018-07-27T22:35:45.159Z,6.10
2018-07-27T22:38:13.567Z,5.83
2018-07-27T22:40:42.031Z,5.78
2018-07-27T22:43:10.351Z,5.40
2018-07-27T22:45:38.704Z,5.12
2018-07-27T22:48:07.070Z,5.30
2018-07-27T22:50:35.446Z,6.05
2018-07-27T22:53:03.868Z,5.80
2018-07-27T22:55:32.242Z,5.53
2018-07-27T22:58:00.650Z,5.37
2018-07-27T23:00:29.129Z,6.42
2018-07-27T23:02:57.566Z,5.37
2018-07-27T23:05:25.950Z,5.80
2018-07-27T23:07:54.346Z,5.10
2018-07-27T23:10:22.814Z,5.58
2018-07-27T23:12:51.262Z,5.35
2018-07-27T23:15:19.647Z,5.47
2018-07-27T23:17:48.071Z,5.45
2018-07-27T23:20:16.443Z,5.60
2018-07-27T23:22:44.850Z,5.37
2018-07-27T23:25:19.802Z,5.25
2018-07-27T23:27:48.251Z,5.45
2018-07-27T23:30:16.657Z,5.85
2018-07-27T23:32:45.068Z,5.40
2018-07-27T23:35:13.504Z,6.10
2018-07-27T23:37:41.893Z,5.83
2018-07-27T23:40:10.407Z,5.50
2018-07-27T23:42:38.820Z,5.78
2018-07-27T23:45:08.289Z,6.17
2018-07-27T23:47:36.720Z,6.00
2018-07-27T23:50:05.845Z,5.60
2018-07-27T23:52:34.227Z,5.78
2018-07-27T23:55:02.654Z,6.33
2018-07-27T23:57:31.032Z,5.75
2018-07-27T23:59:59.128Z,5.85
